Harrison Township, Pennsylvania
Current Conditions -  °F | °C
As of 11:15 AM on Wednesday 28 Jan 2015 (Local Time) from KN38 Reporting Station
Clear Clear  
Wind Chill:   Ceiling: Unl
Heat Index: 19°   Visibility: 10mi
Dew Point: -4°   Wind: 17mph
Humidity: 36%   Direction: 350°N
Pressure: 30.15"   Gusts: 25mph
Location:  41.9252°N, 77.5198°W
Report Text: KN38 281615Z AUTO 35015G22KT 10SM CLR M07/M20 A3015 RMK AO2
Loading
Personal Weather Stations






























Interactive Weather Map New forecast layout! Learn more

10-Day Weather Forecast

Advertisements
Track Severe Weather on mobile